createdAt,value
2022-11-01T00:01:32.930Z,60.41
2022-11-01T00:05:35.845Z,60.12
2022-11-01T00:09:37.877Z,60.61
2022-11-01T00:13:39.561Z,60.96
2022-11-01T00:17:40.989Z,61.18
2022-11-01T00:21:43.979Z,61.75
2022-11-01T00:25:45.435Z,62.67
2022-11-01T00:29:46.839Z,63.26
2022-11-01T00:33:48.599Z,64.11
2022-11-01T00:37:51.336Z,65.68
2022-11-01T00:41:52.776Z,65.43
2022-11-01T00:45:54.188Z,64.32
2022-11-01T00:49:55.760Z,63.75
2022-11-01T00:53:58.504Z,65.43
2022-11-01T00:58:00.166Z,66.55
2022-11-01T01:02:02.152Z,66.14
2022-11-01T01:06:04.164Z,67.65
2022-11-01T01:10:08.280Z,68.13
2022-11-01T01:14:09.883Z,66.35
2022-11-01T01:18:11.959Z,65.59
2022-11-01T01:22:13.380Z,65.24
2022-11-01T01:26:16.144Z,65.25
2022-11-01T01:30:17.723Z,65.53
2022-11-01T01:34:19.304Z,65.57
2022-11-01T01:38:20.782Z,65.75
2022-11-01T01:42:29.132Z,66.07
2022-11-01T01:46:30.607Z,66.30
2022-11-01T01:50:36.517Z,67.04
2022-11-01T01:54:38.339Z,67.80
2022-11-01T01:58:44.994Z,67.72
2022-11-01T02:02:46.403Z,67.68
2022-11-01T02:06:48.515Z,67.62
2022-11-01T02:10:50.272Z,68.67
2022-11-01T02:14:53.115Z,68.48
2022-11-01T02:19:09.172Z,68.99
2022-11-01T02:23:40.383Z,68.55
2022-11-01T02:27:59.847Z,69.40
2022-11-01T02:32:14.340Z,69.78
2022-11-01T02:36:21.910Z,70.06
2022-11-01T02:40:28.898Z,70.21
2022-11-01T02:44:35.464Z,70.58
2022-11-01T02:48:38.695Z,70.38
2022-11-01T02:52:41.291Z,70.48
2022-11-01T02:56:43.840Z,70.07
2022-11-01T03:00:45.386Z,69.75
2022-11-01T03:04:48.435Z,70.20
2022-11-01T03:08:56.463Z,70.12
2022-11-01T03:13:08.462Z,70.91
2022-11-01T03:17:14.908Z,70.93
2022-11-01T03:21:23.816Z,70.50
2022-11-01T03:25:33.350Z,70.01
2022-11-01T03:29:37.482Z,70.30
2022-11-01T03:33:42.841Z,70.61
2022-11-01T03:37:48.827Z,69.72
2022-11-01T03:41:53.922Z,70.04
2022-11-01T03:45:55.501Z,70.62
2022-11-01T03:50:14.586Z,70.13
2022-11-01T03:54:17.324Z,70.52
2022-11-01T03:58:18.907Z,70.81
2022-11-01T04:02:20.332Z,70.51
2022-11-01T04:06:21.738Z,70.59
2022-11-01T04:10:26.703Z,71.29
2022-11-01T04:14:28.185Z,71.53
2022-11-01T04:18:29.757Z,71.27
2022-11-01T04:22:31.545Z,71.58
2022-11-01T04:26:35.627Z,71.86
2022-11-01T04:30:36.988Z,71.03
2022-11-01T04:34:38.412Z,71.12
2022-11-01T04:38:39.776Z,71.03
2022-11-01T04:42:42.511Z,70.75
2022-11-01T04:46:44.071Z,71.84
2022-11-01T04:50:45.479Z,72.00
2022-11-01T04:54:46.931Z,71.62
2022-11-01T04:58:49.693Z,71.33
2022-11-01T05:02:51.755Z,71.97
2022-11-01T05:06:53.108Z,70.84
2022-11-01T05:10:55.955Z,70.39
2022-11-01T05:14:58.775Z,70.51
2022-11-01T05:19:00.180Z,69.41
2022-11-01T05:23:03.425Z,68.70
2022-11-01T05:27:05.228Z,68.70
2022-11-01T05:31:09.172Z,68.06
2022-11-01T05:35:10.617Z,68.05
2022-11-01T05:39:12.462Z,68.75
2022-11-01T05:43:14.507Z,68.48
2022-11-01T05:47:17.706Z,67.91
2022-11-01T05:51:19.337Z,66.79
2022-11-01T05:55:20.750Z,65.54
2022-11-01T05:59:22.229Z,66.03
2022-11-01T06:03:25.230Z,65.54
2022-11-01T06:07:26.736Z,65.21
2022-11-01T06:11:28.893Z,65.11
2022-11-01T06:15:33.146Z,63.06
2022-11-01T06:19:40.803Z,60.27
2022-11-01T06:23:46.274Z,58.49
2022-11-01T06:27:48.202Z,56.97
2022-11-01T06:31:49.766Z,57.14
2022-11-01T06:35:52.546Z,57.16
2022-11-01T06:39:53.958Z,57.32
2022-11-01T06:43:55.348Z,56.63
2022-11-01T06:47:56.950Z,58.08
2022-11-01T06:51:59.750Z,58.87
2022-11-01T06:56:01.473Z,58.80
2022-11-01T07:00:04.485Z,59.00
2022-11-01T07:04:08.422Z,58.55
2022-11-01T07:08:12.970Z,58.41
2022-11-01T07:12:14.413Z,58.34
2022-11-01T07:16:15.870Z,59.27
2022-11-01T07:20:17.503Z,58.25
2022-11-01T07:24:20.397Z,59.03
2022-11-01T07:28:22.036Z,57.15
2022-11-01T07:32:23.453Z,56.85
2022-11-01T07:36:25.034Z,56.57
2022-11-01T07:40:28.266Z,55.71
2022-11-01T07:44:29.881Z,56.99
2022-11-01T07:48:31.428Z,56.16
2022-11-01T07:52:32.949Z,55.19
2022-11-01T07:56:36.077Z,55.61
2022-11-01T08:00:38.731Z,53.65
2022-11-01T08:04:40.302Z,53.94
2022-11-01T08:08:41.682Z,53.39
2022-11-01T08:12:44.597Z,54.08
2022-11-01T08:16:49.086Z,53.83
2022-11-01T08:20:51.112Z,55.29
2022-11-01T08:24:52.607Z,55.20
2022-11-01T08:28:55.632Z,54.94
2022-11-01T08:33:02.031Z,53.70
2022-11-01T08:37:03.715Z,53.23
2022-11-01T08:41:05.320Z,53.82
2022-11-01T08:45:08.312Z,53.56
2022-11-01T08:49:09.892Z,52.79
2022-11-01T08:53:12.923Z,52.14
2022-11-01T08:57:14.516Z,51.64
2022-11-01T09:01:17.456Z,50.67
2022-11-01T09:05:19.156Z,49.86
2022-11-01T09:09:20.842Z,49.92
2022-11-01T09:13:22.459Z,49.74
2022-11-01T09:17:25.370Z,49.20
2022-11-01T09:21:31.605Z,49.79
2022-11-01T09:25:33.813Z,49.79
2022-11-01T09:29:35.430Z,49.99
2022-11-01T09:33:38.467Z,49.76
2022-11-01T09:37:39.948Z,47.97
2022-11-01T09:41:43.754Z,47.78
2022-11-01T09:45:45.576Z,48.35
2022-11-01T09:49:51.659Z,47.75
2022-11-01T09:53:56.335Z,47.21
2022-11-01T09:58:05.052Z,47.56
2022-11-01T10:02:35.859Z,48.38
2022-11-01T10:06:43.718Z,47.65
2022-11-01T10:10:52.260Z,47.12
2022-11-01T10:15:04.933Z,46.21
2022-11-01T10:19:11.864Z,44.44
2022-11-01T10:23:16.409Z,42.90
2022-11-01T10:27:22.613Z,42.81
2022-11-01T10:31:27.202Z,42.37
2022-11-01T10:35:32.187Z,40.07
2022-11-01T10:39:57.000Z,38.85
2022-11-01T10:44:03.759Z,38.37
2022-11-01T10:48:05.692Z,37.99
2022-11-01T10:52:11.159Z,36.93
2022-11-01T10:56:21.298Z,37.19
2022-11-01T11:00:25.708Z,36.98
2022-11-01T11:04:27.344Z,36.88
2022-11-01T11:08:29.125Z,36.64
2022-11-01T11:12:31.971Z,36.28
2022-11-01T11:16:38.972Z,36.09
2022-11-01T11:20:40.520Z,36.78
2022-11-01T11:24:44.135Z,37.36
2022-11-01T11:28:51.384Z,37.58
2022-11-01T11:32:53.336Z,37.01
2022-11-01T11:36:55.370Z,35.77
2022-11-01T11:40:56.795Z,36.43
2022-11-01T11:45:15.410Z,36.27
2022-11-01T11:49:26.790Z,36.57
2022-11-01T11:53:28.965Z,36.33
2022-11-01T11:57:30.613Z,36.46
2022-11-01T12:01:33.462Z,37.34
2022-11-01T12:05:35.212Z,38.37
2022-11-01T12:09:44.515Z,36.94
2022-11-01T12:13:59.937Z,37.42
2022-11-01T12:18:15.633Z,37.83
2022-11-01T12:22:19.230Z,37.99
2022-11-01T12:26:22.617Z,38.93
2022-11-01T12:30:27.173Z,37.76
2022-11-01T12:34:37.146Z,39.06
2022-11-01T12:38:45.872Z,38.84
2022-11-01T12:42:50.903Z,39.28
2022-11-01T12:46:57.833Z,39.20
2022-11-01T12:51:06.005Z,39.96
2022-11-01T12:55:17.958Z,40.00
2022-11-01T12:59:27.460Z,40.18
2022-11-01T13:03:42.702Z,40.05
2022-11-01T13:07:55.880Z,41.74
2022-11-01T13:12:05.138Z,40.54
2022-11-01T13:16:12.828Z,41.16
2022-11-01T13:20:28.961Z,40.84
2022-11-01T13:24:39.517Z,40.44
2022-11-01T13:28:52.749Z,42.22
2022-11-01T13:32:59.524Z,41.66
2022-11-01T13:37:06.800Z,41.39
2022-11-01T13:41:19.931Z,41.91
2022-11-01T13:45:49.672Z,42.39
2022-11-01T13:50:08.675Z,42.43
2022-11-01T13:54:20.331Z,42.13
2022-11-01T13:58:23.972Z,42.27
2022-11-01T14:02:51.328Z,42.52
2022-11-01T14:07:05.994Z,42.55
2022-11-01T14:11:11.309Z,42.62
2022-11-01T14:15:25.126Z,42.69
2022-11-01T14:19:26.624Z,42.39
2022-11-01T14:24:01.506Z,43.18
2022-11-01T14:28:20.824Z,43.32
2022-11-01T14:32:26.446Z,43.58
2022-11-01T14:36:32.858Z,43.97
2022-11-01T14:40:38.460Z,44.11
2022-11-01T14:44:46.863Z,44.81
2022-11-01T14:48:58.196Z,45.80
2022-11-01T14:53:06.924Z,44.75
2022-11-01T14:57:20.181Z,44.24
2022-11-01T15:01:21.836Z,44.50
2022-11-01T15:05:25.350Z,45.34
2022-11-01T15:09:28.489Z,45.46
2022-11-01T15:13:32.494Z,45.39
2022-11-01T15:17:34.869Z,46.00
2022-11-01T15:21:46.677Z,45.78
2022-11-01T15:25:51.493Z,46.07
2022-11-01T15:29:55.283Z,46.42
2022-11-01T15:33:58.815Z,47.63
2022-11-01T15:38:01.585Z,47.73
2022-11-01T15:42:13.642Z,48.78
2022-11-01T15:46:15.127Z,47.63
2022-11-01T15:50:17.227Z,48.45
2022-11-01T15:54:33.603Z,50.30
2022-11-01T15:58:38.231Z,49.22
2022-11-01T16:02:44.954Z,49.04
2022-11-01T16:06:51.502Z,50.55
2022-11-01T16:10:55.076Z,49.17
2022-11-01T16:15:00.191Z,49.05
2022-11-01T16:19:01.639Z,49.83
2022-11-01T16:23:04.243Z,50.55
2022-11-01T16:27:25.770Z,49.97
2022-11-01T16:31:28.527Z,50.14
2022-11-01T16:35:32.118Z,51.37
2022-11-01T16:39:33.704Z,51.10
2022-11-01T16:43:36.600Z,51.64
2022-11-01T16:47:38.008Z,51.69
2022-11-01T16:51:39.640Z,51.83
2022-11-01T16:55:41.355Z,51.56
2022-11-01T16:59:44.160Z,53.78
2022-11-01T17:03:45.818Z,53.77
2022-11-01T17:07:47.689Z,54.34
2022-11-01T17:11:51.310Z,53.63
2022-11-01T17:15:54.748Z,55.12
2022-11-01T17:20:00.477Z,54.20
2022-11-01T17:24:02.644Z,55.29
2022-11-01T17:28:04.750Z,55.10
2022-11-01T17:32:07.643Z,55.34
2022-11-01T17:36:13.285Z,54.68
2022-11-01T17:40:18.271Z,54.13
2022-11-01T17:44:19.672Z,54.92
2022-11-01T17:48:22.438Z,55.43
2022-11-01T17:52:23.851Z,55.16
2022-11-01T17:56:25.548Z,55.62
2022-11-01T18:00:27.178Z,55.28
2022-11-01T18:04:35.476Z,56.06
2022-11-01T18:08:44.175Z,56.24
2022-11-01T18:13:00.574Z,55.39
2022-11-01T18:17:15.635Z,55.79
2022-11-01T18:21:25.747Z,55.23
2022-11-01T18:25:31.454Z,56.01
2022-11-01T18:29:39.905Z,56.88
2022-11-01T18:33:47.594Z,56.13
2022-11-01T18:38:02.701Z,56.61
2022-11-01T18:42:08.262Z,57.61
2022-11-01T18:46:29.666Z,57.44
2022-11-01T18:50:31.330Z,57.57
2022-11-01T18:54:34.590Z,58.13
2022-11-01T18:58:37.006Z,57.47
2022-11-01T19:02:38.744Z,57.60
2022-11-01T19:06:40.386Z,58.60
2022-11-01T19:10:43.203Z,58.61
2022-11-01T19:14:47.622Z,58.81
2022-11-01T19:18:49.526Z,58.51
2022-11-01T19:22:54.926Z,58.98
2022-11-01T19:26:58.859Z,59.21
2022-11-01T19:31:06.682Z,59.08
2022-11-01T19:35:16.866Z,59.72
2022-11-01T19:39:23.906Z,60.00
2022-11-01T19:43:27.870Z,60.17
2022-11-01T19:47:36.990Z,60.56
2022-11-01T19:51:38.505Z,59.83
2022-11-01T19:55:45.255Z,60.08
2022-11-01T19:59:52.321Z,60.18
2022-11-01T20:03:56.130Z,59.59
2022-11-01T20:08:13.085Z,59.82
2022-11-01T20:12:18.681Z,59.94
2022-11-01T20:16:24.543Z,60.41
2022-11-01T20:20:26.028Z,60.76
2022-11-01T20:24:27.664Z,60.20
2022-11-01T20:28:29.301Z,60.43
2022-11-01T20:32:32.726Z,60.72
2022-11-01T20:36:34.129Z,61.38
2022-11-01T20:40:36.091Z,61.13
2022-11-01T20:44:37.525Z,61.57
2022-11-01T20:48:40.546Z,61.97
2022-11-01T20:52:42.018Z,61.97
2022-11-01T20:56:43.430Z,61.74
2022-11-01T21:00:45.379Z,62.09
2022-11-01T21:04:55.058Z,61.11
2022-11-01T21:08:57.271Z,62.21
2022-11-01T21:13:00.423Z,61.34
2022-11-01T21:17:11.377Z,60.40
2022-11-01T21:21:35.889Z,61.58
2022-11-01T21:25:38.692Z,61.34
2022-11-01T21:29:42.842Z,61.30
2022-11-01T21:33:51.372Z,61.37
2022-11-01T21:37:54.883Z,61.31
2022-11-01T21:41:57.892Z,61.32
2022-11-01T21:45:59.295Z,61.02
2022-11-01T21:50:00.883Z,60.87
2022-11-01T21:54:04.757Z,61.24
2022-11-01T21:58:06.340Z,61.28
2022-11-01T22:02:10.763Z,60.87
2022-11-01T22:06:12.240Z,61.21
2022-11-01T22:10:15.322Z,60.87
2022-11-01T22:14:16.788Z,61.18
2022-11-01T22:18:23.857Z,60.88
2022-11-01T22:22:26.566Z,60.61
2022-11-01T22:26:29.715Z,60.81
2022-11-01T22:30:31.121Z,60.12
2022-11-01T22:34:32.900Z,60.25
2022-11-01T22:38:38.659Z,61.26
2022-11-01T22:42:41.646Z,61.37
2022-11-01T22:46:46.484Z,61.26
2022-11-01T22:50:48.360Z,61.41
2022-11-01T22:54:52.048Z,60.92
2022-11-01T22:58:55.161Z,60.94
2022-11-01T23:03:00.793Z,61.07
2022-11-01T23:07:05.898Z,61.83
2022-11-01T23:11:13.271Z,61.21
2022-11-01T23:15:25.123Z,60.76
2022-11-01T23:19:27.152Z,60.49
2022-11-01T23:23:28.833Z,60.46
2022-11-01T23:27:30.343Z,60.60
2022-11-01T23:31:33.257Z,60.17
2022-11-01T23:35:34.699Z,60.29
2022-11-01T23:39:37.571Z,60.09
2022-11-01T23:43:40.858Z,60.15
2022-11-01T23:47:43.636Z,60.57
2022-11-01T23:51:45.226Z,60.89
2022-11-01T23:55:49.546Z,60.56
2022-11-01T23:59:51.714Z,60.48
